Time;durP1;ratioP1;P1;durP2;ratioP2;P2;SDS_P1;SDS_P2;PMS_P1;PMS_P2;Temp;Humidity;BMP_temperature;BMP_pressure;BME280_temperature;BME280_humidity;BME280_pressure;Samples;Min_cycle;Max_cycle;Signal;HPM_P1;HPM_P2
2021/11/07 00:00:07;;;;;;;8.93;5.17;;;;;;;;;;5052080;28;21738;-76
2021/11/07 00:02:42;;;;;;;11.97;5.57;;;;;;;;;;5053508;28;20209;-75
2021/11/07 00:05:18;;;;;;;8.83;5.20;;;;;;;;;;5055586;28;20362;-76
2021/11/07 00:07:50;;;;;;;14.77;6.40;;;;;;;;;;5051634;28;20206;-75
2021/11/07 00:10:24;;;;;;;15.27;6.63;;;;;;;;;;5053412;28;20258;-75
2021/11/07 00:12:54;;;;;;;14.17;6.87;;;;;;;;;;5054923;28;20206;-75
2021/11/07 00:15:22;;;;;;;13.27;5.77;;;;;;;;;;5053852;28;20260;-75
2021/11/07 00:17:52;;;;;;;14.63;6.93;;;;;;;;;;5052870;28;20217;-75
2021/11/07 00:20:24;;;;;;;14.50;6.77;;;;;;;;;;5054140;28;20224;-75
2021/11/07 00:22:56;;;;;;;19.07;6.73;;;;;;;;;;5053753;28;20663;-74
2021/11/07 00:25:28;;;;;;;15.03;6.33;;;;;;;;;;5053392;28;20229;-75
2021/11/07 00:27:57;;;;;;;16.47;6.63;;;;;;;;;;5053970;28;20225;-75
2021/11/07 00:30:35;;;;;;;14.83;7.43;;;;;;;;;;5054022;28;20217;-75
2021/11/07 00:33:14;;;;;;;20.03;8.80;;;;;;;;;;5053438;28;20608;-75
2021/11/07 00:36:02;;;;;;;13.70;6.43;;;;;;;;;;5053846;28;20205;-74
2021/11/07 00:38:37;;;;;;;12.97;6.57;;;;;;;;;;5054741;28;20234;-74
2021/11/07 00:41:15;;;;;;;17.27;7.33;;;;;;;;;;5053136;28;20216;-75
2021/11/07 00:43:46;;;;;;;16.87;6.77;;;;;;;;;;5053534;28;20726;-75
2021/11/07 00:46:18;;;;;;;22.73;7.83;;;;;;;;;;5055294;28;20339;-77
2021/11/07 00:48:47;;;;;;;17.50;8.03;;;;;;;;;;5053348;28;20599;-75
2021/11/07 00:51:19;;;;;;;14.77;7.43;;;;;;;;;;5053273;28;20237;-75
2021/11/07 00:54:00;;;;;;;18.03;8.83;;;;;;;;;;5053928;28;20268;-75
2021/11/07 00:56:34;;;;;;;16.63;8.57;;;;;;;;;;5054837;28;20200;-76
2021/11/07 00:59:19;;;;;;;18.50;7.70;;;;;;;;;;5052853;28;21148;-76
2021/11/07 01:01:51;;;;;;;16.67;7.53;;;;;;;;;;5052993;28;20213;-75
2021/11/07 01:04:18;;;;;;;16.30;7.30;;;;;;;;;;5052346;28;20213;-75
2021/11/07 01:06:44;;;;;;;15.20;7.13;;;;;;;;;;5054599;28;20542;-76
2021/11/07 01:09:13;;;;;;;15.73;6.97;;;;;;;;;;5052381;28;20233;-75
2021/11/07 01:11:41;;;;;;;15.30;6.57;;;;;;;;;;5052114;28;21165;-76
2021/11/07 01:14:11;;;;;;;14.13;7.07;;;;;;;;;;5053395;28;20779;-76
2021/11/07 01:16:38;;;;;;;15.67;7.20;;;;;;;;;;5052075;28;20274;-75
2021/11/07 01:19:05;;;;;;;14.87;6.63;;;;;;;;;;5052299;28;20263;-75
2021/11/07 01:21:35;;;;;;;16.00;7.10;;;;;;;;;;5053523;28;20240;-75
2021/11/07 01:24:05;;;;;;;13.47;6.77;;;;;;;;;;5052030;28;20229;-75
2021/11/07 01:26:34;;;;;;;16.27;6.73;;;;;;;;;;5056294;28;20232;-74
2021/11/07 01:29:08;;;;;;;17.03;7.70;;;;;;;;;;5058534;28;20776;-74
2021/11/07 01:31:35;;;;;;;18.50;6.93;;;;;;;;;;5056556;28;20214;-75
2021/11/07 01:34:03;;;;;;;15.70;6.57;;;;;;;;;;5056844;28;20660;-74
2021/11/07 01:36:36;;;;;;;18.00;7.83;;;;;;;;;;5056241;28;21155;-74
2021/11/07 01:39:10;;;;;;;19.73;7.37;;;;;;;;;;5056756;28;20356;-75
2021/11/07 01:41:43;;;;;;;13.93;6.73;;;;;;;;;;5056687;28;20213;-74
2021/11/07 01:44:13;;;;;;;17.60;6.33;;;;;;;;;;5056374;28;20233;-74
2021/11/07 01:46:42;;;;;;;14.07;6.27;;;;;;;;;;5056687;28;20233;-74
2021/11/07 01:49:12;;;;;;;16.37;6.47;;;;;;;;;;5054474;28;20629;-74
2021/11/07 01:51:46;;;;;;;24.10;7.67;;;;;;;;;;5056219;28;20225;-74
2021/11/07 01:54:20;;;;;;;15.37;6.57;;;;;;;;;;5056401;28;20253;-75
2021/11/07 01:56:48;;;;;;;17.03;6.37;;;;;;;;;;5055761;28;20215;-75
2021/11/07 01:59:16;;;;;;;15.47;6.17;;;;;;;;;;5054866;28;20236;-75
2021/11/07 02:01:43;;;;;;;15.87;5.90;;;;;;;;;;5056751;28;20214;-75
2021/11/07 02:04:10;;;;;;;10.80;4.97;;;;;;;;;;5055705;28;20232;-75
2021/11/07 02:06:38;;;;;;;14.00;4.63;;;;;;;;;;5055386;28;20229;-74
2021/11/07 02:09:04;;;;;;;11.10;3.77;;;;;;;;;;5056458;28;20244;-74
2021/11/07 02:11:31;;;;;;;13.33;4.43;;;;;;;;;;5056190;28;20721;-74
2021/11/07 02:13:58;;;;;;;14.53;4.23;;;;;;;;;;5057592;28;20295;-75
2021/11/07 02:16:26;;;;;;;11.10;3.40;;;;;;;;;;5056061;28;20221;-74
2021/11/07 02:18:53;;;;;;;12.27;3.93;;;;;;;;;;5054533;28;20772;-74
2021/11/07 02:21:20;;;;;;;22.13;3.70;;;;;;;;;;5055955;28;20217;-75
2021/11/07 02:23:47;;;;;;;10.20;3.60;;;;;;;;;;5056277;28;20234;-75
2021/11/07 02:26:14;;;;;;;15.63;3.87;;;;;;;;;;5055613;28;20237;-76
2021/11/07 02:28:43;;;;;;;14.17;3.53;;;;;;;;;;5054559;28;20229;-76
2021/11/07 02:31:15;;;;;;;14.23;3.87;;;;;;;;;;5055492;28;20644;-76
2021/11/07 02:33:42;;;;;;;12.77;3.67;;;;;;;;;;5055274;28;20330;-76
2021/11/07 02:36:11;;;;;;;13.03;3.93;;;;;;;;;;5054498;28;20209;-76
2021/11/07 02:38:39;;;;;;;16.27;3.67;;;;;;;;;;5056671;28;20271;-75
2021/11/07 02:41:07;;;;;;;13.00;3.93;;;;;;;;;;5055864;28;20256;-76
2021/11/07 02:43:40;;;;;;;12.83;3.73;;;;;;;;;;5053277;28;20722;-76
2021/11/07 02:46:06;;;;;;;13.30;3.77;;;;;;;;;;5056418;28;20222;-77
2021/11/07 02:48:32;;;;;;;13.10;3.70;;;;;;;;;;5055535;28;20210;-77
2021/11/07 02:50:59;;;;;;;14.53;3.60;;;;;;;;;;5052101;28;20210;-77
2021/11/07 02:53:25;;;;;;;17.60;3.90;;;;;;;;;;5054990;28;20229;-77
2021/11/07 02:55:53;;;;;;;13.43;4.07;;;;;;;;;;5056119;28;20213;-77
2021/11/07 02:58:20;;;;;;;11.67;3.03;;;;;;;;;;5053171;28;20205;-76
2021/11/07 03:00:47;;;;;;;11.43;3.40;;;;;;;;;;5056449;28;20661;-77
2021/11/07 03:03:13;;;;;;;13.70;3.70;;;;;;;;;;5054307;28;20223;-77
2021/11/07 03:05:40;;;;;;;16.23;4.10;;;;;;;;;;5055504;28;20731;-77
2021/11/07 03:08:06;;;;;;;11.70;3.67;;;;;;;;;;5053176;28;20236;-77
2021/11/07 03:10:33;;;;;;;10.43;3.23;;;;;;;;;;5055224;28;20206;-77
2021/11/07 03:13:06;;;;;;;15.07;3.73;;;;;;;;;;5055101;28;20218;-77
2021/11/07 03:15:34;;;;;;;17.67;4.10;;;;;;;;;;5056220;28;20233;-77
2021/11/07 03:18:01;;;;;;;11.40;3.90;;;;;;;;;;5055958;28;20801;-77
2021/11/07 03:20:28;;;;;;;12.13;3.57;;;;;;;;;;5055100;28;20221;-77
2021/11/07 03:22:56;;;;;;;13.50;3.20;;;;;;;;;;5055606;28;20220;-77
2021/11/07 03:25:24;;;;;;;13.13;4.20;;;;;;;;;;5056600;28;20650;-77
2021/11/07 03:27:51;;;;;;;14.93;4.20;;;;;;;;;;5054841;28;20328;-77
2021/11/07 03:30:28;;;;;;;13.73;3.80;;;;;;;;;;5052363;28;20792;-77
2021/11/07 03:33:01;;;;;;;11.33;4.23;;;;;;;;;;5054139;28;20209;-77
2021/11/07 03:35:30;;;;;;;11.43;4.07;;;;;;;;;;5054844;28;20303;-77
2021/11/07 03:37:56;;;;;;;14.90;4.10;;;;;;;;;;5053078;28;20220;-77
2021/11/07 03:40:25;;;;;;;17.13;4.00;;;;;;;;;;5054055;28;21117;-78
2021/11/07 03:42:51;;;;;;;12.30;3.63;;;;;;;;;;5053331;28;20222;-77
2021/11/07 03:45:21;;;;;;;12.07;3.50;;;;;;;;;;5054924;28;20310;-77
2021/11/07 03:47:47;;;;;;;17.50;4.43;;;;;;;;;;5053952;28;20672;-77
2021/11/07 03:50:15;;;;;;;15.37;4.00;;;;;;;;;;5054398;28;20212;-77
2021/11/07 03:52:41;;;;;;;11.57;3.60;;;;;;;;;;5053622;28;20213;-78
2021/11/07 03:55:08;;;;;;;18.20;4.07;;;;;;;;;;5053718;28;20238;-76
2021/11/07 03:57:35;;;;;;;13.00;3.30;;;;;;;;;;5053689;28;20221;-76
2021/11/07 04:00:04;;;;;;;16.53;4.63;;;;;;;;;;5051958;28;20266;-77
2021/11/07 04:02:32;;;;;;;12.47;3.80;;;;;;;;;;5055904;28;20658;-76
2021/11/07 04:04:59;;;;;;;13.20;3.57;;;;;;;;;;5053781;28;20290;-77
2021/11/07 04:07:25;;;;;;;14.80;4.10;;;;;;;;;;5053548;28;20260;-76
2021/11/07 04:09:52;;;;;;;14.27;3.03;;;;;;;;;;5051145;28;20295;-76
2021/11/07 04:12:18;;;;;;;13.53;4.27;;;;;;;;;;5054442;28;20294;-77
2021/11/07 04:14:45;;;;;;;15.43;4.03;;;;;;;;;;5052441;28;20225;-76
2021/11/07 04:17:12;;;;;;;15.53;4.43;;;;;;;;;;5053477;28;20223;-77
2021/11/07 04:19:40;;;;;;;16.17;4.10;;;;;;;;;;5054301;28;20220;-76
2021/11/07 04:22:09;;;;;;;15.03;3.73;;;;;;;;;;5051896;28;20226;-76
2021/11/07 04:24:36;;;;;;;14.57;4.33;;;;;;;;;;5054721;28;21669;-76
2021/11/07 04:27:03;;;;;;;16.40;4.00;;;;;;;;;;5054933;28;20225;-75
2021/11/07 04:29:30;;;;;;;13.57;4.50;;;;;;;;;;5051436;28;20301;-76
2021/11/07 04:31:56;;;;;;;13.43;3.83;;;;;;;;;;5052600;28;20221;-75
2021/11/07 04:34:24;;;;;;;16.30;3.80;;;;;;;;;;5055195;28;20250;-75
2021/11/07 04:36:53;;;;;;;15.13;4.13;;;;;;;;;;5052629;28;20253;-76
2021/11/07 04:39:20;;;;;;;12.50;3.57;;;;;;;;;;5052051;28;20250;-75
2021/11/07 04:41:48;;;;;;;17.80;4.27;;;;;;;;;;5052619;28;20212;-76
2021/11/07 04:44:14;;;;;;;16.80;4.13;;;;;;;;;;5052501;28;20244;-76
2021/11/07 04:46:41;;;;;;;16.83;4.20;;;;;;;;;;5052663;28;20252;-76
2021/11/07 04:49:07;;;;;;;12.07;3.80;;;;;;;;;;5054107;28;20230;-76
2021/11/07 04:51:34;;;;;;;10.07;3.80;;;;;;;;;;5051953;28;20286;-76
2021/11/07 04:54:02;;;;;;;9.63;3.83;;;;;;;;;;5053600;28;20237;-77
2021/11/07 04:56:28;;;;;;;18.60;4.60;;;;;;;;;;5054801;28;20647;-77
2021/11/07 04:58:55;;;;;;;12.17;3.27;;;;;;;;;;5053538;28;20240;-76
2021/11/07 05:01:22;;;;;;;13.87;3.63;;;;;;;;;;5055323;28;20709;-75
2021/11/07 05:03:48;;;;;;;16.20;3.40;;;;;;;;;;5052770;28;20217;-76
2021/11/07 05:06:15;;;;;;;14.77;4.20;;;;;;;;;;5052976;28;20690;-74
2021/11/07 05:08:41;;;;;;;15.43;3.83;;;;;;;;;;5052357;28;20714;-76
2021/11/07 05:11:10;;;;;;;12.20;3.50;;;;;;;;;;5054226;28;20794;-77
2021/11/07 05:13:36;;;;;;;9.80;2.90;;;;;;;;;;5053823;28;20231;-76
2021/11/07 05:16:03;;;;;;;13.57;4.27;;;;;;;;;;5051760;28;21127;-75
2021/11/07 05:18:29;;;;;;;13.27;3.03;;;;;;;;;;5053409;28;20259;-76
2021/11/07 05:20:56;;;;;;;14.40;3.90;;;;;;;;;;5051876;28;20212;-74
2021/11/07 05:23:23;;;;;;;19.27;4.57;;;;;;;;;;5051169;28;20289;-76
2021/11/07 05:25:49;;;;;;;9.63;4.47;;;;;;;;;;5054235;28;20240;-75
2021/11/07 05:28:17;;;;;;;12.43;3.77;;;;;;;;;;5052798;28;20232;-75
2021/11/07 05:30:44;;;;;;;12.00;3.30;;;;;;;;;;5052686;28;20229;-76
2021/11/07 05:33:11;;;;;;;12.37;3.60;;;;;;;;;;5050713;28;20225;-75
2021/11/07 05:35:38;;;;;;;17.80;4.53;;;;;;;;;;5054541;28;20218;-75
2021/11/07 05:38:04;;;;;;;12.83;3.67;;;;;;;;;;5052276;28;20640;-75
2021/11/07 05:40:31;;;;;;;14.33;3.70;;;;;;;;;;5053204;28;20311;-76
2021/11/07 05:42:58;;;;;;;14.60;3.73;;;;;;;;;;5054626;28;20222;-76
2021/11/07 05:45:25;;;;;;;7.60;3.00;;;;;;;;;;5053388;28;20697;-76
2021/11/07 05:47:52;;;;;;;17.07;4.00;;;;;;;;;;5053011;28;20298;-75
2021/11/07 05:50:21;;;;;;;16.27;3.53;;;;;;;;;;5053946;28;20258;-75
2021/11/07 05:52:48;;;;;;;14.73;4.30;;;;;;;;;;5053476;28;20224;-75
2021/11/07 05:55:14;;;;;;;16.07;3.83;;;;;;;;;;5051130;28;20259;-76
2021/11/07 05:57:42;;;;;;;13.97;3.53;;;;;;;;;;5052890;28;20636;-76
2021/11/07 06:00:11;;;;;;;14.10;4.83;;;;;;;;;;5053936;28;20289;-76
2021/11/07 06:02:39;;;;;;;14.80;3.63;;;;;;;;;;5052046;28;20618;-76
2021/11/07 06:05:07;;;;;;;9.37;3.03;;;;;;;;;;5053260;28;20290;-76
2021/11/07 06:07:33;;;;;;;11.83;3.23;;;;;;;;;;5052488;28;20373;-75
2021/11/07 06:10:00;;;;;;;12.13;3.23;;;;;;;;;;5051969;28;20237;-75
2021/11/07 06:12:27;;;;;;;17.60;4.33;;;;;;;;;;5056869;28;20216;-76
2021/11/07 06:14:54;;;;;;;13.40;3.47;;;;;;;;;;5055971;28;20220;-76
2021/11/07 06:17:21;;;;;;;11.90;3.53;;;;;;;;;;5056097;28;20692;-76
2021/11/07 06:19:48;;;;;;;13.80;3.67;;;;;;;;;;5057278;28;20518;-76
2021/11/07 06:22:16;;;;;;;13.70;3.67;;;;;;;;;;5054478;28;20208;-75
2021/11/07 06:24:42;;;;;;;13.67;3.83;;;;;;;;;;5053493;28;20224;-76
2021/11/07 06:27:10;;;;;;;14.13;3.73;;;;;;;;;;5057163;28;20211;-75
2021/11/07 06:29:38;;;;;;;12.73;3.77;;;;;;;;;;5055332;28;20550;-75
2021/11/07 06:32:05;;;;;;;13.70;3.50;;;;;;;;;;5055175;28;20351;-76
2021/11/07 06:34:36;;;;;;;16.80;3.93;;;;;;;;;;5054762;28;20201;-75
2021/11/07 06:37:05;;;;;;;16.27;4.37;;;;;;;;;;5055205;28;20209;-75
2021/11/07 06:39:32;;;;;;;11.10;4.40;;;;;;;;;;5051685;28;20684;-76
2021/11/07 06:41:58;;;;;;;15.23;3.90;;;;;;;;;;5055161;28;20215;-75
2021/11/07 06:44:25;;;;;;;14.20;3.93;;;;;;;;;;5056381;28;20228;-75
2021/11/07 06:46:51;;;;;;;16.37;3.50;;;;;;;;;;5052790;28;20229;-76
2021/11/07 06:49:19;;;;;;;20.00;4.40;;;;;;;;;;5053547;28;20842;-75
2021/11/07 06:51:46;;;;;;;15.10;3.93;;;;;;;;;;5056575;28;20662;-76
2021/11/07 06:54:14;;;;;;;16.30;4.50;;;;;;;;;;5055872;28;20240;-75
2021/11/07 06:56:41;;;;;;;16.83;4.03;;;;;;;;;;5055801;28;20844;-76
2021/11/07 06:59:08;;;;;;;21.33;4.40;;;;;;;;;;5055571;28;20228;-75
2021/11/07 07:01:37;;;;;;;13.10;3.90;;;;;;;;;;5054553;28;20212;-76
2021/11/07 07:04:04;;;;;;;16.37;3.90;;;;;;;;;;5053470;28;20212;-76
2021/11/07 07:06:33;;;;;;;15.87;4.37;;;;;;;;;;5054336;28;20236;-76
2021/11/07 07:09:04;;;;;;;20.33;4.97;;;;;;;;;;5052762;28;20263;-76
2021/11/07 07:11:35;;;;;;;15.00;4.03;;;;;;;;;;5055356;28;20216;-76
2021/11/07 07:14:04;;;;;;;18.33;3.77;;;;;;;;;;5051381;28;20245;-76
2021/11/07 07:16:41;;;;;;;16.43;4.50;;;;;;;;;;5053529;28;21095;-76
2021/11/07 07:19:18;;;;;;;17.63;4.40;;;;;;;;;;5053206;28;20345;-76
2021/11/07 07:21:54;;;;;;;11.80;3.50;;;;;;;;;;5052986;28;20213;-76
2021/11/07 07:30:03;;;;;;;15.97;3.33;;;;;;;;;;5052685;28;20329;-76
2021/11/07 07:35:26;;;;;;;11.17;2.83;;;;;;;;;;5052766;28;20212;-76
2021/11/07 07:37:53;;;;;;;13.43;3.13;;;;;;;;;;5052396;28;20216;-76
2021/11/07 07:40:19;;;;;;;13.80;3.90;;;;;;;;;;5052113;28;20323;-77
2021/11/07 07:42:47;;;;;;;14.03;3.07;;;;;;;;;;5050966;28;20829;-76
2021/11/07 07:45:15;;;;;;;16.97;3.10;;;;;;;;;;5054145;28;20235;-77
2021/11/07 07:47:43;;;;;;;13.43;3.67;;;;;;;;;;5051349;28;20223;-76
2021/11/07 07:50:11;;;;;;;16.63;3.70;;;;;;;;;;5051901;28;20221;-76
2021/11/07 07:52:38;;;;;;;13.93;4.00;;;;;;;;;;5051064;28;20324;-76
2021/11/07 07:55:08;;;;;;;9.87;3.17;;;;;;;;;;5054107;28;20885;-76
2021/11/07 07:57:34;;;;;;;15.87;3.50;;;;;;;;;;5052559;28;20584;-76
2021/11/07 08:00:02;;;;;;;16.57;3.63;;;;;;;;;;5052574;28;20229;-76
2021/11/07 08:02:29;;;;;;;11.43;3.00;;;;;;;;;;5052091;28;20209;-76
2021/11/07 08:04:55;;;;;;;12.37;3.07;;;;;;;;;;5053973;28;20244;-76
2021/11/07 08:07:23;;;;;;;13.23;3.03;;;;;;;;;;5052091;28;20231;-77
2021/11/07 08:09:49;;;;;;;13.33;3.37;;;;;;;;;;5052495;28;20299;-76
2021/11/07 08:12:16;;;;;;;10.97;3.13;;;;;;;;;;5052129;28;20210;-76
2021/11/07 08:14:43;;;;;;;20.37;4.63;;;;;;;;;;5051874;28;20853;-76
2021/11/07 08:17:11;;;;;;;13.53;3.10;;;;;;;;;;5051887;28;20307;-76
2021/11/07 08:19:37;;;;;;;16.13;4.33;;;;;;;;;;5047095;28;20210;-76
2021/11/07 08:22:04;;;;;;;13.03;3.63;;;;;;;;;;5052926;28;20201;-76
2021/11/07 08:24:31;;;;;;;13.33;3.70;;;;;;;;;;5051743;28;20316;-76
2021/11/07 08:26:58;;;;;;;16.23;4.30;;;;;;;;;;5052879;28;20307;-76
2021/11/07 08:29:26;;;;;;;14.27;3.83;;;;;;;;;;5052192;28;20231;-76
2021/11/07 08:31:53;;;;;;;15.07;4.13;;;;;;;;;;5054060;28;20686;-76
2021/11/07 08:34:25;;;;;;;17.90;4.30;;;;;;;;;;5053598;28;20215;-76
2021/11/07 08:36:57;;;;;;;15.73;3.97;;;;;;;;;;5053079;28;20248;-76
2021/11/07 08:39:26;;;;;;;13.20;3.23;;;;;;;;;;5053009;28;20250;-76
2021/11/07 08:41:58;;;;;;;16.33;3.37;;;;;;;;;;5052578;28;20299;-76
2021/11/07 09:00:55;;;;;;;12.70;3.20;;;;;;;;;;5053536;28;20224;-76
2021/11/07 09:03:31;;;;;;;15.37;3.97;;;;;;;;;;5050161;28;20217;-76
2021/11/07 09:06:13;;;;;;;19.57;4.20;;;;;;;;;;5051994;28;20585;-76
2021/11/07 09:08:41;;;;;;;14.80;4.03;;;;;;;;;;5052205;28;20335;-76
2021/11/07 09:11:10;;;;;;;14.93;2.70;;;;;;;;;;5051217;28;20208;-77
2021/11/07 09:13:37;;;;;;;13.37;3.60;;;;;;;;;;5050422;28;20368;-77
2021/11/07 09:16:04;;;;;;;12.20;3.37;;;;;;;;;;5052518;28;20211;-77
2021/11/07 09:18:32;;;;;;;14.37;3.07;;;;;;;;;;5050506;28;20214;-77
2021/11/07 09:21:06;;;;;;;11.30;2.63;;;;;;;;;;5054658;28;20212;-77
2021/11/07 09:23:36;;;;;;;15.47;3.47;;;;;;;;;;5050487;28;20228;-77
2021/11/07 09:26:27;;;;;;;13.97;2.87;;;;;;;;;;5053014;28;20239;-77
2021/11/07 09:28:58;;;;;;;11.27;2.80;;;;;;;;;;5052055;28;20229;-77
2021/11/07 09:31:45;;;;;;;9.03;2.50;;;;;;;;;;5062718;28;20250;-77
2021/11/07 09:34:20;;;;;;;12.93;3.10;;;;;;;;;;5062837;28;20220;-76
2021/11/07 09:36:50;;;;;;;12.90;2.30;;;;;;;;;;5062192;28;20670;-76
2021/11/07 09:39:20;;;;;;;13.10;2.90;;;;;;;;;;5052412;28;20232;-75
2021/11/07 09:42:27;;;;;;;12.57;3.43;;;;;;;;;;5054597;28;20204;-75
2021/11/07 09:44:55;;;;;;;10.70;3.10;;;;;;;;;;5055390;28;20699;-76
2021/11/07 09:47:24;;;;;;;18.23;3.30;;;;;;;;;;5059178;28;20263;-76
2021/11/07 09:49:51;;;;;;;10.33;2.27;;;;;;;;;;5063249;28;20285;-76
2021/11/07 09:52:23;;;;;;;10.93;2.43;;;;;;;;;;5062600;28;20268;-77
2021/11/07 09:54:58;;;;;;;18.30;3.40;;;;;;;;;;5062439;28;20748;-77
2021/11/07 09:57:25;;;;;;;11.57;3.00;;;;;;;;;;5063837;28;20212;-76
2021/11/07 09:59:56;;;;;;;12.67;3.00;;;;;;;;;;5064012;28;20231;-77
2021/11/07 10:02:23;;;;;;;12.53;2.87;;;;;;;;;;5059497;28;20212;-76
2021/11/07 10:04:51;;;;;;;15.23;3.30;;;;;;;;;;5057608;28;20240;-76
2021/11/07 10:07:22;;;;;;;14.60;3.70;;;;;;;;;;5058862;28;20222;-75
2021/11/07 10:09:53;;;;;;;15.97;3.30;;;;;;;;;;5055500;28;20338;-76
2021/11/07 10:12:23;;;;;;;16.27;3.20;;;;;;;;;;5054025;28;20239;-75
2021/11/07 10:14:57;;;;;;;14.00;3.50;;;;;;;;;;5046838;28;20232;-75
2021/11/07 10:17:36;;;;;;;11.80;2.67;;;;;;;;;;5053755;28;20254;-75
2021/11/07 10:20:17;;;;;;;13.57;3.40;;;;;;;;;;5054184;28;20571;-75
2021/11/07 10:22:49;;;;;;;15.13;3.90;;;;;;;;;;5057027;28;20318;-75
2021/11/07 10:25:19;;;;;;;15.13;3.40;;;;;;;;;;5054705;28;20232;-75
2021/11/07 10:27:48;;;;;;;10.53;3.27;;;;;;;;;;5055284;28;20216;-75
2021/11/07 10:30:24;;;;;;;16.10;4.13;;;;;;;;;;5055061;28;20729;-76
2021/11/07 10:32:58;;;;;;;14.67;3.77;;;;;;;;;;5054080;28;20220;-75
2021/11/07 10:38:27;;;;;;;14.87;3.30;;;;;;;;;;5053717;28;20343;-75
2021/11/07 10:41:07;;;;;;;16.57;3.30;;;;;;;;;;5056180;28;20585;-76
2021/11/07 10:43:43;;;;;;;9.93;2.83;;;;;;;;;;5055613;28;20286;-75
2021/11/07 10:46:19;;;;;;;10.50;2.80;;;;;;;;;;5052673;28;20666;-76
2021/11/07 10:54:30;;;;;;;11.20;2.53;;;;;;;;;;5052945;28;20648;-76
2021/11/07 10:57:15;;;;;;;12.90;3.90;;;;;;;;;;5049131;28;20211;-76
2021/11/07 10:59:42;;;;;;;11.03;3.10;;;;;;;;;;5051667;28;20218;-75
2021/11/07 11:02:37;;;;;;;10.87;2.33;;;;;;;;;;5049030;28;20300;-75
2021/11/07 11:05:06;;;;;;;14.77;2.93;;;;;;;;;;5052001;28;20282;-75
2021/11/07 11:07:33;;;;;;;13.27;3.00;;;;;;;;;;5051884;28;20220;-75
2021/11/07 11:10:14;;;;;;;17.30;3.63;;;;;;;;;;5051175;28;20729;-74
2021/11/07 11:13:05;;;;;;;12.00;3.53;;;;;;;;;;5055256;28;20212;-75
2021/11/07 11:15:38;;;;;;;11.10;2.80;;;;;;;;;;5052345;28;20223;-75
2021/11/07 11:18:19;;;;;;;17.27;3.40;;;;;;;;;;5054882;28;20208;-75
2021/11/07 11:21:24;;;;;;;14.23;3.87;;;;;;;;;;5053127;28;20208;-74
2021/11/07 11:24:09;;;;;;;18.53;4.23;;;;;;;;;;5051975;28;20321;-74
2021/11/07 11:26:50;;;;;;;12.07;3.37;;;;;;;;;;5053543;28;20224;-75
2021/11/07 11:29:41;;;;;;;11.10;3.83;;;;;;;;;;5053265;28;20232;-74
2021/11/07 11:32:13;;;;;;;14.87;4.17;;;;;;;;;;5052241;28;20213;-74
2021/11/07 11:34:43;;;;;;;15.40;3.60;;;;;;;;;;5052075;28;20240;-75
2021/11/07 11:37:14;;;;;;;18.80;5.13;;;;;;;;;;5052365;28;20286;-74
2021/11/07 11:39:44;;;;;;;12.77;3.27;;;;;;;;;;5053272;28;20547;-74
2021/11/07 11:42:18;;;;;;;14.50;3.87;;;;;;;;;;5052492;28;20225;-75
2021/11/07 11:44:48;;;;;;;20.53;4.47;;;;;;;;;;5051987;28;20329;-75
2021/11/07 11:47:31;;;;;;;12.87;3.23;;;;;;;;;;5051739;28;20225;-75
2021/11/07 11:50:14;;;;;;;18.03;4.50;;;;;;;;;;5051207;28;20221;-74
2021/11/07 11:52:49;;;;;;;19.77;5.10;;;;;;;;;;5052113;28;20288;-75
2021/11/07 11:55:35;;;;;;;18.30;4.27;;;;;;;;;;5053137;28;20229;-76
2021/11/07 11:58:18;;;;;;;17.67;4.90;;;;;;;;;;5052940;28;20219;-76
2021/11/07 12:00:56;;;;;;;18.43;3.93;;;;;;;;;;5050753;28;20216;-76
2021/11/07 12:03:37;;;;;;;14.70;4.23;;;;;;;;;;5050835;28;20211;-76
2021/11/07 12:06:24;;;;;;;12.20;4.03;;;;;;;;;;5052725;28;20235;-76
2021/11/07 12:09:18;;;;;;;17.70;3.93;;;;;;;;;;5049697;28;20658;-76
2021/11/07 12:11:48;;;;;;;18.97;4.70;;;;;;;;;;5052689;28;20225;-76
2021/11/07 12:14:19;;;;;;;17.97;4.13;;;;;;;;;;5052271;28;20721;-76
2021/11/07 12:16:54;;;;;;;15.30;4.13;;;;;;;;;;5052517;28;20277;-76
2021/11/07 12:19:22;;;;;;;16.77;4.80;;;;;;;;;;5050585;28;20257;-76
2021/11/07 12:22:03;;;;;;;17.03;3.43;;;;;;;;;;5051359;28;20669;-76
2021/11/07 12:24:33;;;;;;;18.40;4.17;;;;;;;;;;5050130;28;20331;-75
2021/11/07 12:27:22;;;;;;;9.90;2.90;;;;;;;;;;5052566;28;20576;-76
2021/11/07 12:29:53;;;;;;;11.93;2.60;;;;;;;;;;5052103;28;20611;-76
2021/11/07 12:32:20;;;;;;;14.43;3.27;;;;;;;;;;5049975;28;20248;-76
2021/11/07 12:34:58;;;;;;;14.93;3.23;;;;;;;;;;5051128;28;20304;-76
2021/11/07 12:40:41;;;;;;;13.30;3.27;;;;;;;;;;5051733;28;20227;-77
2021/11/07 12:43:10;;;;;;;12.80;3.07;;;;;;;;;;5050943;28;20718;-77
2021/11/07 12:45:42;;;;;;;15.63;3.87;;;;;;;;;;5048995;28;20236;-77
2021/11/07 12:48:10;;;;;;;12.57;3.17;;;;;;;;;;5051771;28;20232;-77
2021/11/07 12:50:52;;;;;;;19.30;4.10;;;;;;;;;;5052018;28;20317;-78
2021/11/07 12:53:19;;;;;;;14.17;3.57;;;;;;;;;;5051989;28;20320;-77
2021/11/07 12:55:46;;;;;;;14.97;3.37;;;;;;;;;;5050577;28;20217;-77
2021/11/07 12:58:14;;;;;;;12.77;3.67;;;;;;;;;;5051186;28;20212;-78
2021/11/07 13:00:47;;;;;;;14.27;3.27;;;;;;;;;;5050256;28;20229;-76
2021/11/07 13:03:16;;;;;;;13.93;3.13;;;;;;;;;;5051138;28;20718;-77
2021/11/07 13:05:43;;;;;;;11.20;3.00;;;;;;;;;;5049973;28;20240;-77
2021/11/07 13:08:18;;;;;;;11.30;2.23;;;;;;;;;;5049981;28;20228;-77
2021/11/07 13:10:51;;;;;;;12.57;2.87;;;;;;;;;;5051109;28;20238;-77
2021/11/07 13:13:25;;;;;;;11.33;3.23;;;;;;;;;;5051558;28;20302;-76
2021/11/07 13:16:05;;;;;;;13.47;3.30;;;;;;;;;;5053280;28;20262;-76
2021/11/07 13:18:48;;;;;;;9.57;3.57;;;;;;;;;;5051436;28;20216;-76
2021/11/07 13:21:35;;;;;;;13.47;3.17;;;;;;;;;;5053436;28;21195;-76
2021/11/07 13:24:14;;;;;;;16.43;4.17;;;;;;;;;;5055090;28;20270;-76
2021/11/07 13:26:57;;;;;;;13.50;3.50;;;;;;;;;;5054847;28;20211;-76
2021/11/07 13:29:31;;;;;;;17.37;4.03;;;;;;;;;;5053016;28;20511;-77
2021/11/07 13:32:13;;;;;;;18.60;4.43;;;;;;;;;;5055777;28;20294;-77
2021/11/07 13:34:52;;;;;;;14.00;3.77;;;;;;;;;;5055568;28;20220;-78
2021/11/07 13:37:21;;;;;;;16.20;3.33;;;;;;;;;;5054877;28;20337;-77
2021/11/07 13:39:47;;;;;;;13.27;2.77;;;;;;;;;;5056440;28;20232;-77
2021/11/07 13:42:15;;;;;;;10.80;3.10;;;;;;;;;;5054074;28;20580;-76
2021/11/07 13:44:52;;;;;;;12.23;3.43;;;;;;;;;;5053912;28;20323;-76
2021/11/07 13:47:30;;;;;;;14.03;3.60;;;;;;;;;;5054509;28;20243;-76
2021/11/07 13:49:57;;;;;;;15.67;3.20;;;;;;;;;;5054610;28;20726;-76
2021/11/07 13:52:23;;;;;;;11.17;2.97;;;;;;;;;;5052428;28;20207;-76
2021/11/07 13:54:50;;;;;;;15.37;3.97;;;;;;;;;;5054359;28;20232;-76
2021/11/07 13:57:17;;;;;;;16.97;4.20;;;;;;;;;;5055512;28;20304;-76
2021/11/07 13:59:45;;;;;;;15.43;4.30;;;;;;;;;;5055067;28;20247;-76
2021/11/07 14:02:15;;;;;;;19.00;4.23;;;;;;;;;;5054449;28;20295;-76
2021/11/07 14:04:45;;;;;;;21.93;4.73;;;;;;;;;;5056012;28;20770;-76
2021/11/07 14:07:14;;;;;;;17.80;4.60;;;;;;;;;;5054975;28;20223;-76
2021/11/07 14:09:55;;;;;;;16.40;3.90;;;;;;;;;;5055865;28;20413;-76
2021/11/07 14:12:34;;;;;;;22.60;4.13;;;;;;;;;;5052188;28;20220;-76
2021/11/07 14:15:07;;;;;;;16.10;3.73;;;;;;;;;;5054913;28;20267;-76
2021/11/07 14:17:34;;;;;;;24.67;4.60;;;;;;;;;;5054800;28;20677;-76
2021/11/07 14:20:03;;;;;;;14.20;4.47;;;;;;;;;;5054691;28;21078;-76
2021/11/07 14:22:29;;;;;;;18.37;3.77;;;;;;;;;;5055567;28;20313;-76
2021/11/07 14:25:02;;;;;;;14.60;3.47;;;;;;;;;;5051748;28;20231;-76
2021/11/07 14:27:34;;;;;;;14.10;3.63;;;;;;;;;;5052583;28;20582;-77
2021/11/07 14:30:04;;;;;;;10.23;2.90;;;;;;;;;;5052195;28;20417;-77
2021/11/07 14:32:34;;;;;;;12.30;3.37;;;;;;;;;;5052339;28;20224;-77
2021/11/07 14:35:08;;;;;;;15.50;3.17;;;;;;;;;;5053738;28;20295;-76
2021/11/07 14:37:39;;;;;;;12.37;3.83;;;;;;;;;;5052752;28;20548;-76
2021/11/07 14:40:10;;;;;;;15.47;3.37;;;;;;;;;;5055311;28;20236;-76
2021/11/07 14:42:54;;;;;;;10.40;3.07;;;;;;;;;;5055301;28;20321;-76
2021/11/07 14:45:30;;;;;;;18.47;4.33;;;;;;;;;;5055286;28;20282;-76
2021/11/07 14:48:25;;;;;;;15.43;3.77;;;;;;;;;;5054759;28;21251;-77
2021/11/07 14:51:16;;;;;;;17.83;3.10;;;;;;;;;;5055881;28;20231;-76
2021/11/07 14:53:51;;;;;;;16.77;4.03;;;;;;;;;;5054577;28;20240;-76
2021/11/07 14:56:24;;;;;;;11.23;3.90;;;;;;;;;;5055926;28;20217;-76
2021/11/07 14:58:58;;;;;;;21.63;4.33;;;;;;;;;;5054225;28;20243;-76
2021/11/07 15:01:31;;;;;;;15.63;3.93;;;;;;;;;;5053089;28;20213;-77
2021/11/07 15:04:03;;;;;;;13.33;3.13;;;;;;;;;;5052067;28;20206;-77
2021/11/07 15:06:37;;;;;;;14.53;3.87;;;;;;;;;;5054203;28;20278;-76
2021/11/07 15:09:14;;;;;;;16.90;3.83;;;;;;;;;;5053908;28;20235;-77
2021/11/07 15:11:52;;;;;;;15.03;3.33;;;;;;;;;;5053173;28;20227;-77
2021/11/07 15:14:37;;;;;;;15.00;3.70;;;;;;;;;;5053342;28;20236;-76
2021/11/07 15:17:21;;;;;;;13.93;3.47;;;;;;;;;;5054982;28;20302;-75
2021/11/07 15:19:58;;;;;;;17.53;4.17;;;;;;;;;;5054379;28;20613;-77
2021/11/07 15:22:47;;;;;;;18.40;3.57;;;;;;;;;;5051439;28;20211;-76
2021/11/07 15:25:13;;;;;;;13.63;3.63;;;;;;;;;;5054095;28;20223;-75
2021/11/07 15:27:40;;;;;;;13.13;3.37;;;;;;;;;;5052486;28;20210;-76
2021/11/07 15:30:15;;;;;;;12.50;2.97;;;;;;;;;;5050416;28;20230;-76